createdAt,value
2018-06-21T00:01:33.423Z,45.80
2018-06-21T00:04:02.536Z,46.10
2018-06-21T00:06:31.740Z,46.10
2018-06-21T00:09:01.088Z,46.10
2018-06-21T00:11:30.192Z,46.20
2018-06-21T00:13:59.297Z,46.40
2018-06-21T00:16:28.490Z,46.50
2018-06-21T00:18:57.648Z,46.50
2018-06-21T00:21:26.764Z,46.40
2018-06-21T00:23:55.971Z,46.50
2018-06-21T00:26:25.344Z,46.50
2018-06-21T00:28:54.450Z,46.70
2018-06-21T00:31:23.838Z,46.80
2018-06-21T00:33:52.972Z,47.40
2018-06-21T00:36:22.080Z,47.30
2018-06-21T00:38:51.263Z,47.10
2018-06-21T00:41:20.371Z,47.10
2018-06-21T00:43:49.483Z,47.40
2018-06-21T00:46:18.624Z,47.50
2018-06-21T00:48:47.860Z,47.50
2018-06-21T00:51:17.015Z,47.80
2018-06-21T00:53:46.174Z,47.80
2018-06-21T00:56:19.494Z,47.80
2018-06-21T00:58:49.500Z,48.00
2018-06-21T01:01:19.114Z,47.70
2018-06-21T01:03:48.628Z,48.00
2018-06-21T01:06:17.823Z,48.10
2018-06-21T01:08:46.927Z,48.30
2018-06-21T01:11:16.024Z,48.60
2018-06-21T01:13:45.167Z,48.60
2018-06-21T01:16:14.327Z,49.00
2018-06-21T01:18:43.430Z,49.20
2018-06-21T01:21:12.605Z,49.30
2018-06-21T01:23:41.926Z,49.60
2018-06-21T01:26:11.026Z,49.60
2018-06-21T01:28:40.126Z,50.10
2018-06-21T01:31:09.218Z,50.10
2018-06-21T01:33:38.523Z,50.10
2018-06-21T01:36:07.610Z,50.10
2018-06-21T01:38:36.906Z,50.20
2018-06-21T01:41:06.018Z,50.40
2018-06-21T01:43:35.101Z,50.50
2018-06-21T01:46:04.391Z,51.10
2018-06-21T01:48:33.466Z,51.20
2018-06-21T01:51:02.651Z,51.70
2018-06-21T01:53:31.941Z,52.00
2018-06-21T01:56:01.044Z,51.80
2018-06-21T01:58:30.370Z,52.30
2018-06-21T02:00:59.468Z,52.60
2018-06-21T02:03:28.534Z,52.70
2018-06-21T02:05:58.081Z,52.70
2018-06-21T02:08:27.393Z,52.90
2018-06-21T02:10:56.455Z,52.70
2018-06-21T02:13:25.808Z,53.00
2018-06-21T02:15:54.880Z,53.20
2018-06-21T02:18:24.169Z,53.30
2018-06-21T02:20:53.264Z,53.60
2018-06-21T02:23:22.688Z,53.90
2018-06-21T02:25:53.562Z,53.90
2018-06-21T02:28:22.671Z,53.90
2018-06-21T02:30:51.745Z,53.90
2018-06-21T02:33:20.872Z,53.60
2018-06-21T02:35:49.958Z,53.20
2018-06-21T02:38:19.127Z,53.50
2018-06-21T02:40:48.226Z,53.50
2018-06-21T02:43:17.289Z,53.80
2018-06-21T02:45:46.944Z,54.10
2018-06-21T02:48:16.417Z,54.80
2018-06-21T02:50:45.481Z,54.80
2018-06-21T02:53:14.554Z,54.90
2018-06-21T02:55:43.877Z,54.90
2018-06-21T02:58:12.978Z,55.10
2018-06-21T03:00:42.347Z,54.90
2018-06-21T03:03:11.526Z,54.90
2018-06-21T03:05:40.658Z,55.10
2018-06-21T03:08:09.950Z,54.90
2018-06-21T03:10:39.155Z,54.90
2018-06-21T03:13:08.451Z,54.80
2018-06-21T03:15:38.266Z,54.80
2018-06-21T03:18:07.394Z,54.90
2018-06-21T03:20:36.451Z,54.80
2018-06-21T03:23:05.558Z,54.90
2018-06-21T03:25:34.670Z,54.90
2018-06-21T03:28:03.725Z,54.80
2018-06-21T03:30:32.807Z,54.80
2018-06-21T03:33:02.269Z,54.60
2018-06-21T03:35:31.398Z,54.50
2018-06-21T03:38:00.773Z,54.80
2018-06-21T03:40:30.508Z,54.90
2018-06-21T03:43:00.221Z,54.90
2018-06-21T03:45:29.539Z,55.10
2018-06-21T03:47:59.746Z,55.20
2018-06-21T03:50:29.070Z,55.50
2018-06-21T03:52:58.173Z,55.40
2018-06-21T03:55:27.358Z,55.20
2018-06-21T03:57:56.452Z,55.20
2018-06-21T04:00:26.218Z,55.50
2018-06-21T04:02:55.733Z,55.70
2018-06-21T04:05:24.830Z,55.80
2018-06-21T04:07:54.160Z,55.80
2018-06-21T04:10:23.226Z,55.50
2018-06-21T04:12:52.545Z,55.40
2018-06-21T04:15:21.661Z,55.40
2018-06-21T04:17:50.732Z,55.20
2018-06-21T04:20:19.788Z,54.90
2018-06-21T04:22:49.709Z,54.30
2018-06-21T04:25:19.422Z,53.80
2018-06-21T04:27:48.483Z,53.50
2018-06-21T04:30:18.540Z,53.20
2018-06-21T04:32:47.987Z,53.00
2018-06-21T04:35:17.275Z,53.00
2018-06-21T04:37:46.834Z,53.00
2018-06-21T04:40:16.139Z,52.60
2018-06-21T04:42:45.217Z,52.40
2018-06-21T04:45:14.613Z,52.30
2018-06-21T04:47:43.678Z,52.00
2018-06-21T04:50:12.753Z,51.70
2018-06-21T04:52:42.649Z,52.00
2018-06-21T04:55:12.161Z,52.00
2018-06-21T04:57:41.291Z,52.00
2018-06-21T05:00:10.485Z,52.10
2018-06-21T05:02:39.719Z,52.40
2018-06-21T05:05:08.810Z,52.60
2018-06-21T05:07:37.961Z,53.00
2018-06-21T05:10:07.250Z,53.30
2018-06-21T05:12:36.326Z,53.50
2018-06-21T05:15:05.477Z,53.50
2018-06-21T05:17:35.400Z,53.00
2018-06-21T05:20:04.526Z,52.60
2018-06-21T05:22:33.807Z,52.40
2018-06-21T05:25:02.927Z,51.80
2018-06-21T05:27:32.310Z,51.10
2018-06-21T05:30:01.354Z,50.90
2018-06-21T05:32:30.647Z,50.80
2018-06-21T05:35:00.798Z,50.50
2018-06-21T05:37:30.082Z,50.50
2018-06-21T05:39:59.113Z,49.60
2018-06-21T05:42:28.212Z,49.60
2018-06-21T05:44:57.259Z,49.30
2018-06-21T05:47:26.547Z,49.80
2018-06-21T05:49:55.605Z,49.50
2018-06-21T05:52:24.629Z,49.60
2018-06-21T05:54:53.897Z,49.60
2018-06-21T05:57:22.988Z,49.60
2018-06-21T05:59:52.261Z,49.00
2018-06-21T06:02:21.550Z,49.00
2018-06-21T06:04:50.877Z,49.20
2018-06-21T06:07:19.916Z,49.20
2018-06-21T06:09:49.209Z,49.60
2018-06-21T06:12:25.321Z,49.60
2018-06-21T06:14:54.350Z,49.50
2018-06-21T06:17:23.701Z,49.20
2018-06-21T06:19:53.098Z,49.60
2018-06-21T06:22:22.575Z,49.30
2018-06-21T06:24:51.929Z,49.00
2018-06-21T06:27:21.215Z,48.90
2018-06-21T06:29:50.325Z,48.90
2018-06-21T06:32:20.167Z,48.70
2018-06-21T06:34:49.200Z,48.60
2018-06-21T06:37:21.349Z,48.40
2018-06-21T06:39:50.385Z,48.40
2018-06-21T06:42:19.441Z,49.00
2018-06-21T06:44:48.760Z,49.00
2018-06-21T06:47:17.797Z,48.90
2018-06-21T06:49:46.885Z,48.90
2018-06-21T06:52:15.938Z,48.60
2018-06-21T06:54:46.785Z,48.70
2018-06-21T06:57:16.503Z,48.60
2018-06-21T06:59:45.709Z,48.10
2018-06-21T07:02:15.354Z,47.40
2018-06-21T07:04:45.023Z,47.30
2018-06-21T07:07:16.163Z,47.30
2018-06-21T07:09:45.711Z,46.70
2018-06-21T07:12:15.182Z,46.70
2018-06-21T07:14:44.282Z,46.70
2018-06-21T07:17:13.765Z,45.90
2018-06-21T07:19:42.954Z,45.50
2018-06-21T07:22:12.451Z,45.30
2018-06-21T07:24:41.621Z,45.30
2018-06-21T07:27:10.896Z,44.30
2018-06-21T07:29:39.973Z,43.60
2018-06-21T07:32:09.246Z,43.70
2018-06-21T07:34:38.477Z,43.30
2018-06-21T07:37:07.681Z,42.20
2018-06-21T07:39:36.798Z,42.10
2018-06-21T07:42:05.892Z,41.80
2018-06-21T07:44:35.214Z,41.50
2018-06-21T07:47:04.597Z,41.50
2018-06-21T07:49:34.008Z,40.90
2018-06-21T07:52:03.294Z,40.70
2018-06-21T07:54:32.553Z,39.90
2018-06-21T07:57:01.814Z,39.60
2018-06-21T07:59:30.994Z,39.90
2018-06-21T08:02:00.233Z,38.80
2018-06-21T08:04:29.594Z,39.00
2018-06-21T08:06:58.912Z,38.70
2018-06-21T08:09:28.090Z,37.50
2018-06-21T08:11:57.429Z,37.80
2018-06-21T08:14:26.614Z,38.70
2018-06-21T08:16:56.537Z,38.70
2018-06-21T08:19:26.631Z,38.70
2018-06-21T08:21:55.733Z,38.70
2018-06-21T08:24:25.592Z,37.80
2018-06-21T08:26:55.105Z,37.10
2018-06-21T08:29:24.705Z,36.50
2018-06-21T08:31:54.334Z,37.60
2018-06-21T08:34:23.734Z,38.10
2018-06-21T08:36:53.134Z,38.20
2018-06-21T08:39:22.189Z,38.20
2018-06-21T08:41:51.240Z,37.60
2018-06-21T08:44:20.278Z,37.20
2018-06-21T08:46:49.549Z,37.80
2018-06-21T08:49:19.144Z,38.40
2018-06-21T08:51:48.158Z,38.10
2018-06-21T08:54:17.177Z,37.90
2018-06-21T08:56:47.017Z,37.80
2018-06-21T08:59:16.256Z,38.50
2018-06-21T09:01:45.278Z,37.90
2018-06-21T09:04:14.457Z,37.60
2018-06-21T09:06:43.700Z,37.20
2018-06-21T09:09:12.953Z,37.60
2018-06-21T09:11:42.003Z,37.80
2018-06-21T09:14:11.036Z,38.20
2018-06-21T09:16:40.337Z,38.40
2018-06-21T09:19:09.393Z,38.10
2018-06-21T09:21:38.421Z,37.20
2018-06-21T09:24:07.696Z,36.60
2018-06-21T09:26:36.764Z,35.90
2018-06-21T09:29:06.188Z,35.40
2018-06-21T09:31:35.619Z,35.40
2018-06-21T09:34:04.901Z,35.40
2018-06-21T09:36:37.401Z,34.50
2018-06-21T09:39:15.396Z,33.50
2018-06-21T09:41:49.986Z,32.80
2018-06-21T09:44:24.434Z,33.20
2018-06-21T09:46:58.761Z,34.00
2018-06-21T09:49:32.475Z,34.70
2018-06-21T09:52:03.822Z,34.10
2018-06-21T09:54:33.499Z,33.80
2018-06-21T09:57:03.414Z,32.50
2018-06-21T09:59:32.497Z,31.70
2018-06-21T10:02:01.549Z,32.30
2018-06-21T10:04:30.873Z,31.30
2018-06-21T10:07:00.199Z,30.70
2018-06-21T10:09:29.288Z,31.00
2018-06-21T10:11:58.343Z,30.60
2018-06-21T10:14:27.853Z,31.00
2018-06-21T10:16:57.126Z,31.10
2018-06-21T10:19:26.167Z,31.00
2018-06-21T10:21:55.198Z,29.90
2018-06-21T10:24:24.264Z,30.80
2018-06-21T10:26:53.540Z,30.80
2018-06-21T10:29:22.714Z,30.70
2018-06-21T10:31:51.950Z,30.80
2018-06-21T10:34:21.169Z,31.30
2018-06-21T10:36:50.433Z,31.00
2018-06-21T10:39:19.766Z,31.70
2018-06-21T10:41:48.828Z,32.80
2018-06-21T10:44:17.942Z,34.80
2018-06-21T10:46:47.208Z,35.40
2018-06-21T10:49:16.292Z,34.10
2018-06-21T10:51:45.393Z,33.10
2018-06-21T10:54:14.452Z,32.00
2018-06-21T10:56:43.528Z,31.40
2018-06-21T10:59:12.613Z,30.70
2018-06-21T11:01:41.685Z,30.60
2018-06-21T11:04:10.739Z,30.30
2018-06-21T11:06:39.807Z,30.10
2018-06-21T11:09:09.220Z,29.90
2018-06-21T11:11:38.291Z,29.80
2018-06-21T11:14:07.441Z,29.80
2018-06-21T11:16:36.681Z,29.70
2018-06-21T11:19:05.954Z,29.50
2018-06-21T11:21:35.028Z,29.30
2018-06-21T11:24:04.761Z,29.20
2018-06-21T11:26:34.277Z,29.20
2018-06-21T11:29:03.309Z,29.30
2018-06-21T11:31:32.333Z,29.30
2018-06-21T11:34:01.390Z,29.50
2018-06-21T11:36:30.415Z,29.60
2018-06-21T11:39:00.018Z,29.60
2018-06-21T11:41:29.387Z,29.70
2018-06-21T11:43:58.498Z,29.80
2018-06-21T11:46:27.669Z,29.80
2018-06-21T11:48:56.845Z,29.60
2018-06-21T11:51:26.138Z,29.30
2018-06-21T11:53:55.216Z,29.20
2018-06-21T11:56:24.682Z,29.00
2018-06-21T11:58:54.005Z,28.90
2018-06-21T12:01:23.277Z,28.90
2018-06-21T12:03:52.336Z,28.90
2018-06-21T12:06:21.369Z,29.10
2018-06-21T12:08:50.514Z,29.20
2018-06-21T12:11:19.765Z,29.40
2018-06-21T12:13:48.801Z,29.60
2018-06-21T12:16:18.087Z,29.80
2018-06-21T12:18:47.208Z,29.90
2018-06-21T12:21:16.235Z,30.30
2018-06-21T12:23:45.262Z,30.70
2018-06-21T12:26:14.427Z,31.00
2018-06-21T12:28:43.622Z,31.40
2018-06-21T12:31:12.692Z,31.70
2018-06-21T12:33:41.802Z,32.20
2018-06-21T12:36:11.877Z,32.50
2018-06-21T12:38:41.470Z,32.90
2018-06-21T12:41:10.574Z,33.40
2018-06-21T12:43:39.912Z,33.80
2018-06-21T12:46:09.256Z,34.10
2018-06-21T12:48:38.713Z,34.50
2018-06-21T12:51:07.810Z,34.80
2018-06-21T12:53:36.862Z,35.40
2018-06-21T12:56:06.155Z,35.70
2018-06-21T12:58:35.201Z,35.90
2018-06-21T13:01:04.289Z,36.20
2018-06-21T13:03:35.438Z,36.60
2018-06-21T13:06:04.477Z,36.90
2018-06-21T13:08:44.929Z,37.20
2018-06-21T13:11:30.876Z,37.50
2018-06-21T13:14:11.403Z,37.90
2018-06-21T13:16:40.493Z,38.20
2018-06-21T13:19:09.539Z,38.50
2018-06-21T13:21:38.837Z,38.70
2018-06-21T13:24:08.089Z,38.70
2018-06-21T13:26:37.112Z,37.90
2018-06-21T13:29:06.372Z,37.10
2018-06-21T13:31:35.633Z,36.30
2018-06-21T13:34:04.665Z,35.70
2018-06-21T13:36:33.746Z,35.10
2018-06-21T13:39:02.791Z,34.00
2018-06-21T13:41:32.116Z,32.20
2018-06-21T13:44:01.173Z,31.60
2018-06-21T13:46:30.290Z,31.40
2018-06-21T13:48:59.330Z,31.60
2018-06-21T13:51:28.409Z,31.90
2018-06-21T13:53:57.447Z,32.00
2018-06-21T13:56:26.725Z,32.30
2018-06-21T13:58:56.013Z,32.80
2018-06-21T14:01:25.273Z,33.50
2018-06-21T14:03:54.542Z,34.10
2018-06-21T14:06:23.810Z,34.50
2018-06-21T14:08:53.082Z,35.10
2018-06-21T14:11:22.119Z,35.60
2018-06-21T14:13:51.190Z,36.30
2018-06-21T14:16:20.497Z,36.80
2018-06-21T14:18:49.558Z,36.80
2018-06-21T14:21:18.635Z,37.20
2018-06-21T14:23:47.670Z,37.10
2018-06-21T14:26:16.713Z,36.80
2018-06-21T14:28:46.283Z,36.90
2018-06-21T14:31:15.550Z,37.10
2018-06-21T14:33:44.818Z,37.10
2018-06-21T14:36:13.965Z,37.10
2018-06-21T14:38:42.988Z,36.90
2018-06-21T14:41:12.017Z,36.30
2018-06-21T14:43:41.293Z,35.90
2018-06-21T14:46:10.513Z,35.40
2018-06-21T14:48:39.776Z,35.00
2018-06-21T14:51:08.842Z,34.70
2018-06-21T14:53:38.385Z,34.70
2018-06-21T14:56:07.385Z,34.70
2018-06-21T14:58:36.665Z,34.50
2018-06-21T15:01:05.694Z,34.50
2018-06-21T15:03:34.833Z,34.50
2018-06-21T15:06:03.881Z,34.40
2018-06-21T15:08:32.924Z,34.40
2018-06-21T15:11:01.957Z,34.40
2018-06-21T15:13:31.101Z,34.40
2018-06-21T15:16:00.125Z,34.40
2018-06-21T15:18:29.181Z,34.40
2018-06-21T15:20:58.500Z,34.50
2018-06-21T15:23:27.579Z,34.40
2018-06-21T15:25:56.675Z,34.40
2018-06-21T15:28:25.757Z,34.50
2018-06-21T15:30:54.790Z,34.40
2018-06-21T15:33:23.832Z,34.50
2018-06-21T15:35:53.202Z,34.50
2018-06-21T15:38:22.628Z,34.70
2018-06-21T15:40:51.658Z,34.70
2018-06-21T15:43:20.926Z,34.70
2018-06-21T15:45:49.977Z,34.80
2018-06-21T15:48:19.065Z,34.70
2018-06-21T15:50:48.377Z,34.70
2018-06-21T15:53:17.667Z,34.70
2018-06-21T15:55:46.697Z,34.70
2018-06-21T15:58:16.016Z,34.70
2018-06-21T16:00:45.057Z,34.80
2018-06-21T16:03:14.099Z,34.80
2018-06-21T16:05:43.149Z,34.80
2018-06-21T16:08:12.200Z,34.80
2018-06-21T16:10:41.210Z,34.70
2018-06-21T16:13:10.944Z,34.70
2018-06-21T16:15:40.230Z,34.50
2018-06-21T16:18:09.305Z,34.40
2018-06-21T16:20:38.600Z,34.20
2018-06-21T16:23:07.640Z,34.20
2018-06-21T16:25:36.962Z,34.40
2018-06-21T16:28:06.441Z,34.40
2018-06-21T16:30:36.049Z,34.50
2018-06-21T16:33:05.229Z,34.20
2018-06-21T16:35:34.341Z,34.70
2018-06-21T16:38:03.637Z,34.80
2018-06-21T16:40:32.989Z,35.10
2018-06-21T16:43:02.285Z,35.10
2018-06-21T16:45:31.906Z,35.30
2018-06-21T16:48:00.941Z,35.10
2018-06-21T16:50:30.046Z,35.10
2018-06-21T16:52:59.316Z,35.10
2018-06-21T16:55:28.366Z,35.10
2018-06-21T16:57:57.638Z,35.10
2018-06-21T17:00:26.921Z,35.30
2018-06-21T17:02:56.291Z,35.60
2018-06-21T17:05:25.571Z,36.00
2018-06-21T17:07:54.661Z,36.20
2018-06-21T17:10:23.963Z,36.20
2018-06-21T17:12:53.010Z,36.50
2018-06-21T17:15:22.030Z,36.80
2018-06-21T17:17:51.061Z,36.60
2018-06-21T17:20:20.152Z,36.60
2018-06-21T17:22:49.405Z,36.60
2018-06-21T17:25:18.465Z,36.50
2018-06-21T17:27:47.554Z,36.20
2018-06-21T17:30:16.671Z,36.00
2018-06-21T17:32:45.908Z,35.90
2018-06-21T17:35:15.119Z,35.90
2018-06-21T17:37:44.224Z,35.90
2018-06-21T17:40:13.250Z,35.90
2018-06-21T17:42:42.299Z,36.00
2018-06-21T17:45:11.312Z,36.00
2018-06-21T17:47:40.409Z,36.00
2018-06-21T17:50:09.564Z,36.00
2018-06-21T17:52:38.650Z,36.00
2018-06-21T17:55:07.692Z,36.00
2018-06-21T17:57:36.785Z,36.20
2018-06-21T18:00:05.967Z,36.50
2018-06-21T18:02:35.062Z,36.60
2018-06-21T18:05:04.115Z,36.80
2018-06-21T18:07:33.219Z,36.80
2018-06-21T18:10:02.506Z,36.80
2018-06-21T18:12:31.697Z,36.80
2018-06-21T18:15:01.232Z,36.80
2018-06-21T18:17:30.581Z,36.90
2018-06-21T18:20:00.151Z,37.10
2018-06-21T18:22:29.273Z,37.10
2018-06-21T18:24:58.837Z,37.10
2018-06-21T18:27:28.425Z,37.20
2018-06-21T18:29:57.673Z,37.20
2018-06-21T18:32:28.723Z,37.40
2018-06-21T18:34:58.215Z,37.50
2018-06-21T18:37:27.333Z,37.50
2018-06-21T18:39:56.535Z,37.50
2018-06-21T18:42:25.647Z,37.50
2018-06-21T18:44:54.898Z,37.60
2018-06-21T18:47:23.978Z,37.60
2018-06-21T18:49:54.711Z,37.90
2018-06-21T18:52:24.228Z,37.90
2018-06-21T18:54:54.301Z,37.90
2018-06-21T18:57:23.680Z,38.10
2018-06-21T18:59:52.709Z,38.10
2018-06-21T19:02:23.677Z,38.10
2018-06-21T19:04:52.862Z,38.20
2018-06-21T19:07:27.821Z,38.20
2018-06-21T19:10:02.402Z,38.40
2018-06-21T19:12:31.742Z,38.50
2018-06-21T19:15:00.783Z,38.40
2018-06-21T19:17:30.205Z,38.50
2018-06-21T19:19:59.417Z,38.80
2018-06-21T19:22:28.478Z,39.00
2018-06-21T19:24:57.501Z,39.00
2018-06-21T19:27:26.610Z,39.30
2018-06-21T19:29:55.758Z,39.40
2018-06-21T19:32:24.918Z,39.60
2018-06-21T19:34:54.393Z,39.70
2018-06-21T19:37:23.697Z,39.90
2018-06-21T19:39:53.320Z,40.00
2018-06-21T19:42:22.375Z,40.30
2018-06-21T19:44:51.481Z,40.30
2018-06-21T19:47:20.826Z,40.30
2018-06-21T19:49:49.974Z,40.50
2018-06-21T19:52:19.030Z,36.00
2018-06-21T19:54:48.775Z,36.80
2018-06-21T19:57:17.849Z,35.10
2018-06-21T19:59:46.951Z,33.50
2018-06-21T20:02:16.044Z,33.70
2018-06-21T20:04:45.305Z,32.90
2018-06-21T20:07:14.602Z,31.90
2018-06-21T20:09:43.686Z,33.20
2018-06-21T20:12:13.034Z,32.50
2018-06-21T20:14:42.370Z,32.00
2018-06-21T20:17:11.563Z,33.70
2018-06-21T20:19:45.882Z,32.00
2018-06-21T20:22:15.593Z,32.60
2018-06-21T20:24:44.997Z,32.90
2018-06-21T20:27:14.043Z,33.10
2018-06-21T20:29:43.369Z,36.30
2018-06-21T20:32:12.401Z,36.90
2018-06-21T20:34:41.433Z,38.70
2018-06-21T20:37:15.704Z,36.60
2018-06-21T20:39:44.799Z,37.60
2018-06-21T20:42:14.078Z,38.70
2018-06-21T20:44:43.127Z,36.20
2018-06-21T20:47:12.398Z,37.40
2018-06-21T20:49:41.729Z,36.80
2018-06-21T20:52:16.065Z,37.80
2018-06-21T20:54:45.141Z,38.10
2018-06-21T20:57:14.343Z,37.60
2018-06-21T20:59:43.910Z,37.40
2018-06-21T21:02:13.174Z,36.60
2018-06-21T21:05:16.544Z,37.60
2018-06-21T21:07:47.021Z,36.30
2018-06-21T21:10:17.080Z,38.10
2018-06-21T21:12:46.341Z,37.10
2018-06-21T21:15:15.999Z,38.70
2018-06-21T21:17:45.290Z,38.20
2018-06-21T21:20:14.552Z,38.10
2018-06-21T21:22:43.632Z,39.30
2018-06-21T21:25:12.654Z,39.10
2018-06-21T21:27:41.741Z,39.40
2018-06-21T21:30:10.926Z,39.30
2018-06-21T21:32:40.044Z,40.50
2018-06-21T21:35:09.429Z,39.70
2018-06-21T21:37:38.467Z,40.00
2018-06-21T21:40:07.932Z,37.80
2018-06-21T21:42:38.225Z,39.60
2018-06-21T21:45:07.634Z,39.90
2018-06-21T21:47:36.688Z,40.20
2018-06-21T21:50:05.761Z,40.50
2018-06-21T21:52:35.018Z,40.00
2018-06-21T21:55:04.059Z,40.00
2018-06-21T21:57:33.073Z,39.70
2018-06-21T22:00:02.116Z,39.10
2018-06-21T22:02:32.641Z,40.30
2018-06-21T22:05:01.834Z,40.00
2018-06-21T22:07:30.849Z,38.10
2018-06-21T22:10:00.115Z,39.90
2018-06-21T22:12:29.136Z,40.30
2018-06-21T22:14:58.141Z,40.60
2018-06-21T22:17:27.412Z,40.70
2018-06-21T22:19:56.423Z,40.70
2018-06-21T22:22:25.576Z,41.90
2018-06-21T22:24:54.861Z,41.30
2018-06-21T22:27:23.917Z,41.50
2018-06-21T22:29:52.930Z,41.00
2018-06-21T22:32:22.009Z,41.50
2018-06-21T22:34:51.273Z,41.80
2018-06-21T22:37:20.363Z,40.90
2018-06-21T22:39:49.435Z,41.00
2018-06-21T22:42:18.438Z,41.80
2018-06-21T22:44:47.564Z,41.00
2018-06-21T22:47:16.797Z,41.30
2018-06-21T22:49:46.081Z,41.80
2018-06-21T22:52:15.142Z,41.30
2018-06-21T22:54:44.411Z,42.20
2018-06-21T22:57:13.658Z,42.10
2018-06-21T22:59:42.699Z,41.50
2018-06-21T23:02:11.710Z,41.30
2018-06-21T23:04:40.714Z,41.20
2018-06-21T23:07:09.965Z,41.80
2018-06-21T23:09:38.988Z,40.70
2018-06-21T23:12:08.010Z,40.60
2018-06-21T23:14:37.033Z,39.90
2018-06-21T23:17:06.377Z,41.60
2018-06-21T23:19:35.392Z,41.50
2018-06-21T23:22:04.385Z,42.40
2018-06-21T23:24:33.661Z,40.90
2018-06-21T23:27:02.656Z,40.90
2018-06-21T23:29:31.874Z,41.00
2018-06-21T23:32:00.925Z,42.10
2018-06-21T23:34:29.937Z,41.50
2018-06-21T23:36:59.177Z,41.60
2018-06-21T23:39:28.238Z,41.60
2018-06-21T23:41:57.454Z,41.60
2018-06-21T23:44:26.454Z,42.10
2018-06-21T23:46:55.484Z,41.90
2018-06-21T23:49:24.500Z,42.10
2018-06-21T23:51:53.506Z,41.60
2018-06-21T23:54:22.572Z,42.10
2018-06-21T23:56:51.564Z,41.00
2018-06-21T23:59:20.896Z,41.90
